Ashland, OH

2:09 AM EST on February 01, 2015 (GMT -0500)
US Hwy 42 - Ashland, OH 44805 | Change Station
CLOSE
Current Station
Personal Weather Station
Location: Ashland, OH
Elevation: 1165 ft
Nearby Weather Stations
Active Advisory: Winter Storm Warning

Elev 1165 ft 40.83 °N, 82.38 °W | Updated 4 seconds ago

Overcast
Overcast
31.3 °F
Feels Like 26 °F
N
5.8
Wind Variable Wind from North
Gusts 5.8 mph

Today
High -- | Low -- °F
--% Chance of Precip.
Yesterday
High -- | Low -- °F
Precip. -- in
7:39 AM 5:46 PM
Waxing Gibbous, 93% visible
Pressure 30.15 in
Visibility 1.8 miles
Clouds Few 1000 ft
Mostly Cloudy 2300 ft
Overcast 3000 ft
Windchill 26 °F
Dew Point 29 °F
Humidity 92%
Rainfall 0.00 in
Snow Depth Not available.
UV 0 out of 12
Pollen .10 out of 12
Air Quality Not available.
Flu Activity Not available.
SPECI KMFD 010658Z AUTO 22008KT 1 3/4SM -SN BR FEW010 BKN023 OVC030 M01/M03 A3015 RMK AO2 P0000 T10111033

More Conditions Fewer Conditions

Pressure 30.15 in
Visibility 1.8 miles
Clouds Few 1000 ft
Mostly Cloudy 2300 ft
Overcast 3000 ft
Windchill 26 °F
Dew Point 29 °F
Humidity 92%
Rainfall 0.00 in
Snow Depth Not available.
UV 0 out of 12
Pollen .10 out of 12
Air Quality Not available.
Flu Activity Not available.
SPECI KMFD 010658Z AUTO 22008KT 1 3/4SM -SN BR FEW010 BKN023 OVC030 M01/M03 A3015 RMK AO2 P0000 T10111033

More Conditions Fewer Conditions

10-Day Weather Forecast

Almanac

Astronomy

Feb. 01, 2015 Rise Set
Actual Time
Civil Twilight
Nautical Twilight
Astronomical Twilight
Moon
Length of Visible Light
Length of Day
Tomorrow will be .
, % of the Moon is Illuminated

Today's Extremes

State Highs State Lows

Community

WunderPhotos

Upload Photos

1,792,325 photos uploaded!

WunderBlogs® & News

Nearby

Air Quality

  Air Quality AQ Index Pollutant
Not available.

Snow Depth

Station Depth Elevation

Earthquake Activity

City Distance Mag. Time & Date
Minimum magnitude displayed is 2.5.

Coastal Water Temperatures

Place Temperature

Nearby Weather Stations